CFG030 EDDH-EDDF
Flight info
| Callsign | CFG030 |
|---|---|
| Flight time | 1h 27m |
| Altitude | 30000 |
| Route | AMLUH2G/33 AMLUH M852 DENIX DCT RIMET/N0446F310 T157 KOKEB/N0391F230 T157 KERAX KERAX5A |
| Aircraft | A21N/M-SDE2E3FGHIRWXY/LB1 |
Departure
| Time | 2026-04-16 13:49 |
|---|---|
| Airport | Hamburg Helmut Schmidt Airport (EDDH) |
Arrival
| Time | 2026-04-16 15:16 |
|---|---|
| Airport | Frankfurt Main Airport (EDDF) |
| Time | Latitude | Longitude | Altitude | Speed | Heading |
|---|---|---|---|---|---|
| 2026-04-16 13:22 | 53.62888 | 10.00224 | 52 ft | 0 kts | 124° |
| 2026-04-16 13:23 | 53.62953 | 10.00265 | 51 ft | 0 kts | 124° |
| 2026-04-16 13:37 | 53.62960 | 10.00246 | 52 ft | 4 kts | 116° |
| 2026-04-16 13:37 | 53.62968 | 10.00204 | 48 ft | 4 kts | 97° |
| 2026-04-16 13:37 | 53.62968 | 10.00160 | 48 ft | 4 kts | 79° |
| 2026-04-16 13:38 | 53.62961 | 10.00116 | 52 ft | 4 kts | 66° |
| 2026-04-16 13:38 | 53.62949 | 10.00075 | 54 ft | 4 kts | 67° |
| 2026-04-16 13:38 | 53.62944 | 10.00036 | 51 ft | 4 kts | 109° |
| 2026-04-16 13:38 | 53.62956 | 10.00003 | 50 ft | 4 kts | 133° |
| 2026-04-16 13:39 | 53.62977 | 9.99974 | 48 ft | 4 kts | 148° |
| 2026-04-16 13:39 | 53.63001 | 9.99953 | 50 ft | 4 kts | 155° |
| 2026-04-16 13:39 | 53.63017 | 9.99940 | 52 ft | 1 kts | 153° |
| 2026-04-16 13:41 | 53.63014 | 9.99942 | 54 ft | 3 kts | 153° |
| 2026-04-16 13:42 | 53.62973 | 9.99978 | 54 ft | 11 kts | 152° |
| 2026-04-16 13:42 | 53.62904 | 9.99943 | 54 ft | 12 kts | 243° |
| 2026-04-16 13:42 | 53.62895 | 9.99912 | 53 ft | 0 kts | 243° |
| 2026-04-16 13:43 | 53.62894 | 9.99908 | 53 ft | 2 kts | 243° |
| 2026-04-16 13:43 | 53.62876 | 9.99849 | 51 ft | 9 kts | 243° |
| 2026-04-16 13:44 | 53.62897 | 9.99726 | 51 ft | 16 kts | 323° |
| 2026-04-16 13:44 | 53.62982 | 9.99647 | 51 ft | 0 kts | 332° |
| 2026-04-16 13:48 | 53.63019 | 9.99613 | 51 ft | 27 kts | 331° |
| 2026-04-16 13:48 | 53.63514 | 9.99183 | 53 ft | 143 kts | 333° |
| 2026-04-16 13:48 | 53.64737 | 9.98121 | 382 ft | 242 kts | 333° |
| 2026-04-16 13:49 | 53.66367 | 9.96744 | 1379 ft | 260 kts | 332° |
| 2026-04-16 13:49 | 53.67911 | 9.95421 | 2602 ft | 223 kts | 331° |
| 2026-04-16 13:49 | 53.69225 | 9.94310 | 3577 ft | 209 kts | 335° |
| 2026-04-16 13:49 | 53.70676 | 9.94032 | 4261 ft | 216 kts | 4° |
| 2026-04-16 13:50 | 53.72167 | 9.94392 | 4639 ft | 218 kts | 14° |
| 2026-04-16 13:50 | 53.73420 | 9.95815 | 4822 ft | 223 kts | 52° |
| 2026-04-16 13:50 | 53.73963 | 9.98209 | 4911 ft | 225 kts | 83° |
| 2026-04-16 13:50 | 53.74105 | 10.00844 | 4954 ft | 225 kts | 83° |
| 2026-04-16 13:51 | 53.74534 | 10.03378 | 4966 ft | 225 kts | 65° |
| 2026-04-16 13:51 | 53.74939 | 10.05905 | 4958 ft | 225 kts | 94° |
| 2026-04-16 13:51 | 53.74424 | 10.08322 | 4957 ft | 220 kts | 133° |
| 2026-04-16 13:51 | 53.73255 | 10.09931 | 4967 ft | 217 kts | 153° |
| 2026-04-16 13:52 | 53.71966 | 10.11250 | 5031 ft | 219 kts | 143° |
| 2026-04-16 13:52 | 53.70999 | 10.13252 | 5097 ft | 222 kts | 124° |
| 2026-04-16 13:52 | 53.70219 | 10.15512 | 5121 ft | 223 kts | 122° |
| 2026-04-16 13:52 | 53.69457 | 10.17790 | 5143 ft | 223 kts | 122° |
| 2026-04-16 13:53 | 53.68693 | 10.20071 | 5146 ft | 223 kts | 122° |
| 2026-04-16 13:53 | 53.67811 | 10.22189 | 5138 ft | 219 kts | 144° |
| 2026-04-16 13:53 | 53.66440 | 10.23087 | 5137 ft | 211 kts | 182° |
| 2026-04-16 13:53 | 53.64985 | 10.22951 | 5148 ft | 211 kts | 185° |
| 2026-04-16 13:54 | 53.63511 | 10.23114 | 5144 ft | 213 kts | 173° |
| 2026-04-16 13:54 | 53.62065 | 10.23622 | 5835 ft | 214 kts | 171° |
| 2026-04-16 13:54 | 53.60600 | 10.24227 | 7015 ft | 220 kts | 171° |
| 2026-04-16 13:54 | 53.59106 | 10.24881 | 8201 ft | 224 kts | 170° |
| 2026-04-16 13:55 | 53.57585 | 10.25560 | 9385 ft | 228 kts | 170° |
| 2026-04-16 13:55 | 53.56038 | 10.26260 | 10504 ft | 233 kts | 170° |
| 2026-04-16 13:55 | 53.54460 | 10.26978 | 11559 ft | 237 kts | 170° |
| 2026-04-16 13:55 | 53.52852 | 10.27712 | 12632 ft | 242 kts | 170° |
| 2026-04-16 13:56 | 53.51214 | 10.28457 | 13710 ft | 246 kts | 169° |
| 2026-04-16 13:56 | 53.49543 | 10.29218 | 14682 ft | 251 kts | 169° |
| 2026-04-16 13:56 | 53.47843 | 10.29993 | 15622 ft | 256 kts | 169° |
| 2026-04-16 13:56 | 53.46110 | 10.30783 | 16558 ft | 260 kts | 169° |
| 2026-04-16 13:57 | 53.44346 | 10.31587 | 17494 ft | 265 kts | 169° |
| 2026-04-16 13:57 | 53.42554 | 10.32402 | 18401 ft | 269 kts | 169° |
| 2026-04-16 13:57 | 53.40733 | 10.33224 | 19216 ft | 272 kts | 169° |
| 2026-04-16 13:58 | 53.37064 | 10.34873 | 20931 ft | 274 kts | 170° |
| 2026-04-16 13:58 | 53.35219 | 10.35702 | 21759 ft | 275 kts | 170° |
| 2026-04-16 13:58 | 53.33383 | 10.36526 | 22544 ft | 278 kts | 170° |
| 2026-04-16 13:58 | 53.31511 | 10.37365 | 23367 ft | 281 kts | 170° |
| 2026-04-16 13:59 | 53.29613 | 10.38215 | 23899 ft | 283 kts | 170° |
| 2026-04-16 13:59 | 53.27700 | 10.39072 | 24073 ft | 287 kts | 171° |
| 2026-04-16 13:59 | 53.25759 | 10.39940 | 24141 ft | 289 kts | 171° |
| 2026-04-16 13:59 | 53.23822 | 10.40807 | 24154 ft | 288 kts | 171° |
| 2026-04-16 14:00 | 53.21883 | 10.41674 | 24153 ft | 289 kts | 171° |
| 2026-04-16 14:00 | 53.19941 | 10.42543 | 24151 ft | 289 kts | 171° |
| 2026-04-16 14:00 | 53.18002 | 10.43408 | 24150 ft | 288 kts | 171° |
| 2026-04-16 14:00 | 53.16071 | 10.44268 | 24147 ft | 287 kts | 171° |
| 2026-04-16 14:01 | 53.14140 | 10.45125 | 24149 ft | 287 kts | 171° |
| 2026-04-16 14:01 | 53.12205 | 10.45971 | 24151 ft | 286 kts | 174° |
| 2026-04-16 14:01 | 53.10271 | 10.45989 | 24151 ft | 276 kts | 193° |
| 2026-04-16 14:01 | 53.08373 | 10.45516 | 24154 ft | 276 kts | 194° |
| 2026-04-16 14:02 | 53.06468 | 10.45081 | 24153 ft | 277 kts | 193° |
| 2026-04-16 14:02 | 53.04554 | 10.44712 | 24152 ft | 277 kts | 192° |
| 2026-04-16 14:02 | 53.02633 | 10.44386 | 24151 ft | 277 kts | 191° |
| 2026-04-16 14:02 | 53.00711 | 10.44085 | 24151 ft | 277 kts | 191° |
| 2026-04-16 14:03 | 52.98786 | 10.43800 | 24149 ft | 278 kts | 191° |
| 2026-04-16 14:03 | 52.96859 | 10.43525 | 24150 ft | 278 kts | 191° |
| 2026-04-16 14:03 | 52.94930 | 10.43255 | 24150 ft | 278 kts | 191° |
| 2026-04-16 14:03 | 52.93003 | 10.42987 | 24150 ft | 278 kts | 190° |
| 2026-04-16 14:04 | 52.91074 | 10.42722 | 24151 ft | 278 kts | 190° |
| 2026-04-16 14:04 | 52.89146 | 10.42458 | 24150 ft | 278 kts | 190° |
| 2026-04-16 14:04 | 52.87217 | 10.42193 | 24150 ft | 278 kts | 190° |
| 2026-04-16 14:04 | 52.85291 | 10.41931 | 24151 ft | 278 kts | 190° |
| 2026-04-16 14:05 | 52.83385 | 10.41671 | 24148 ft | 278 kts | 190° |
| 2026-04-16 14:05 | 52.81455 | 10.41408 | 24148 ft | 278 kts | 190° |
| 2026-04-16 14:05 | 52.79523 | 10.41145 | 24140 ft | 278 kts | 190° |
| 2026-04-16 14:05 | 52.77577 | 10.40880 | 24145 ft | 281 kts | 191° |
| 2026-04-16 14:06 | 52.75625 | 10.40616 | 24150 ft | 282 kts | 191° |
| 2026-04-16 14:06 | 52.73670 | 10.40353 | 24152 ft | 282 kts | 191° |
| 2026-04-16 14:06 | 52.71715 | 10.40089 | 24152 ft | 282 kts | 191° |
| 2026-04-16 14:06 | 52.69761 | 10.39826 | 24153 ft | 282 kts | 191° |
| 2026-04-16 14:07 | 52.67804 | 10.39561 | 24153 ft | 282 kts | 191° |
| 2026-04-16 14:07 | 52.65849 | 10.39297 | 24154 ft | 282 kts | 191° |
| 2026-04-16 14:07 | 52.63896 | 10.39034 | 24155 ft | 282 kts | 191° |
| 2026-04-16 14:07 | 52.61944 | 10.38770 | 24156 ft | 282 kts | 191° |
| 2026-04-16 14:08 | 52.59985 | 10.38507 | 24157 ft | 282 kts | 191° |
| 2026-04-16 14:08 | 52.58030 | 10.38244 | 24158 ft | 282 kts | 191° |
| 2026-04-16 14:08 | 52.56072 | 10.37982 | 24159 ft | 282 kts | 191° |
| 2026-04-16 14:08 | 52.54109 | 10.37718 | 24145 ft | 285 kts | 192° |
| 2026-04-16 14:09 | 52.52127 | 10.37451 | 24152 ft | 286 kts | 192° |
| 2026-04-16 14:09 | 52.50144 | 10.37185 | 24159 ft | 286 kts | 192° |
| 2026-04-16 14:09 | 52.48160 | 10.36919 | 24162 ft | 286 kts | 192° |
| 2026-04-16 14:09 | 52.46201 | 10.36659 | 24164 ft | 286 kts | 192° |
| 2026-04-16 14:10 | 52.44217 | 10.36393 | 24165 ft | 286 kts | 192° |
| 2026-04-16 14:10 | 52.42234 | 10.36128 | 24166 ft | 286 kts | 192° |
| 2026-04-16 14:10 | 52.40246 | 10.35863 | 24167 ft | 286 kts | 192° |
| 2026-04-16 14:10 | 52.38260 | 10.35599 | 24168 ft | 286 kts | 192° |
| 2026-04-16 14:11 | 52.36278 | 10.35335 | 24170 ft | 286 kts | 192° |
| 2026-04-16 14:11 | 52.34290 | 10.35071 | 24170 ft | 286 kts | 192° |
| 2026-04-16 14:11 | 52.32306 | 10.34809 | 24169 ft | 286 kts | 192° |
| 2026-04-16 14:11 | 52.30314 | 10.34545 | 24151 ft | 288 kts | 192° |
| 2026-04-16 14:12 | 52.28317 | 10.34279 | 24160 ft | 288 kts | 192° |
| 2026-04-16 14:12 | 52.26318 | 10.34014 | 24164 ft | 288 kts | 192° |
| 2026-04-16 14:12 | 52.24317 | 10.33750 | 24165 ft | 288 kts | 192° |
| 2026-04-16 14:12 | 52.22315 | 10.33487 | 24175 ft | 288 kts | 192° |
| 2026-04-16 14:13 | 52.20316 | 10.33220 | 24179 ft | 288 kts | 192° |
| 2026-04-16 14:13 | 52.18315 | 10.32956 | 24175 ft | 288 kts | 192° |
| 2026-04-16 14:13 | 52.16315 | 10.32692 | 24178 ft | 288 kts | 192° |
| 2026-04-16 14:13 | 52.14316 | 10.32428 | 24167 ft | 288 kts | 192° |
| 2026-04-16 14:14 | 52.12315 | 10.32164 | 24166 ft | 289 kts | 192° |
| 2026-04-16 14:14 | 52.10317 | 10.31901 | 24173 ft | 288 kts | 192° |
| 2026-04-16 14:14 | 52.08317 | 10.31638 | 24176 ft | 288 kts | 192° |
| 2026-04-16 14:14 | 52.06312 | 10.31374 | 24156 ft | 290 kts | 192° |
| 2026-04-16 14:15 | 52.04300 | 10.31110 | 24168 ft | 290 kts | 192° |
| 2026-04-16 14:15 | 52.02287 | 10.30848 | 24171 ft | 290 kts | 192° |
| 2026-04-16 14:15 | 52.00275 | 10.30586 | 24175 ft | 290 kts | 192° |
| 2026-04-16 14:15 | 51.98261 | 10.30324 | 24174 ft | 290 kts | 192° |
| 2026-04-16 14:16 | 51.96928 | 10.30148 | 24175 ft | 290 kts | 192° |
| 2026-04-16 14:16 | 51.94915 | 10.29884 | 24177 ft | 290 kts | 192° |
| 2026-04-16 14:16 | 51.92901 | 10.29620 | 24173 ft | 290 kts | 192° |
| 2026-04-16 14:16 | 51.90902 | 10.29361 | 24184 ft | 288 kts | 192° |
| 2026-04-16 14:17 | 51.88911 | 10.29100 | 24174 ft | 287 kts | 192° |
| 2026-04-16 14:17 | 51.86916 | 10.28839 | 24180 ft | 288 kts | 192° |
| 2026-04-16 14:17 | 51.84917 | 10.28580 | 24181 ft | 288 kts | 192° |
| 2026-04-16 14:17 | 51.82917 | 10.28321 | 24165 ft | 289 kts | 192° |
| 2026-04-16 14:18 | 51.80912 | 10.28059 | 24198 ft | 290 kts | 192° |
| 2026-04-16 14:18 | 51.78900 | 10.27799 | 24195 ft | 290 kts | 192° |
| 2026-04-16 14:18 | 51.76892 | 10.27540 | 24192 ft | 290 kts | 192° |
| 2026-04-16 14:18 | 51.74881 | 10.27279 | 24184 ft | 290 kts | 192° |
| 2026-04-16 14:19 | 51.72872 | 10.27022 | 24189 ft | 290 kts | 192° |
| 2026-04-16 14:19 | 51.70861 | 10.26767 | 24188 ft | 290 kts | 192° |
| 2026-04-16 14:19 | 51.68852 | 10.26510 | 24188 ft | 290 kts | 192° |
| 2026-04-16 14:19 | 51.66842 | 10.26253 | 24186 ft | 290 kts | 192° |
| 2026-04-16 14:20 | 51.64830 | 10.25994 | 24187 ft | 290 kts | 192° |
| 2026-04-16 14:20 | 51.62819 | 10.25734 | 24191 ft | 290 kts | 192° |
| 2026-04-16 14:20 | 51.60808 | 10.25476 | 24192 ft | 290 kts | 192° |
| 2026-04-16 14:20 | 51.58795 | 10.25218 | 24159 ft | 291 kts | 192° |
| 2026-04-16 14:21 | 51.56781 | 10.24958 | 23898 ft | 290 kts | 192° |
| 2026-04-16 14:21 | 51.54799 | 10.24703 | 23553 ft | 289 kts | 192° |
| 2026-04-16 14:21 | 51.52799 | 10.24445 | 23370 ft | 288 kts | 192° |
| 2026-04-16 14:21 | 51.50795 | 10.24187 | 23545 ft | 289 kts | 192° |
| 2026-04-16 14:22 | 51.48785 | 10.23930 | 23783 ft | 291 kts | 192° |
| 2026-04-16 14:22 | 51.46765 | 10.23673 | 24010 ft | 292 kts | 192° |
| 2026-04-16 14:22 | 51.44741 | 10.23413 | 24194 ft | 292 kts | 192° |
| 2026-04-16 14:22 | 51.42723 | 10.23155 | 24226 ft | 291 kts | 192° |
| 2026-04-16 14:23 | 51.40705 | 10.22895 | 24218 ft | 291 kts | 192° |
| 2026-04-16 14:23 | 51.38688 | 10.22635 | 24208 ft | 291 kts | 192° |
| 2026-04-16 14:23 | 51.36667 | 10.22378 | 24201 ft | 291 kts | 192° |
| 2026-04-16 14:23 | 51.34645 | 10.22123 | 24185 ft | 292 kts | 192° |
| 2026-04-16 14:24 | 51.32615 | 10.21879 | 24190 ft | 294 kts | 189° |
| 2026-04-16 14:24 | 51.30563 | 10.21821 | 24195 ft | 295 kts | 187° |
| 2026-04-16 14:24 | 51.28509 | 10.21804 | 24196 ft | 295 kts | 187° |
| 2026-04-16 14:24 | 51.26456 | 10.21780 | 24201 ft | 295 kts | 188° |
| 2026-04-16 14:25 | 51.24404 | 10.21749 | 24200 ft | 295 kts | 188° |
| 2026-04-16 14:25 | 51.22350 | 10.21722 | 24201 ft | 295 kts | 188° |
| 2026-04-16 14:25 | 51.20300 | 10.21689 | 24203 ft | 295 kts | 188° |
| 2026-04-16 14:25 | 51.18253 | 10.21655 | 24195 ft | 295 kts | 188° |
| 2026-04-16 14:26 | 51.16200 | 10.21613 | 24204 ft | 295 kts | 188° |
| 2026-04-16 14:26 | 51.14149 | 10.21558 | 24209 ft | 295 kts | 188° |
| 2026-04-16 14:26 | 51.12098 | 10.21513 | 24196 ft | 295 kts | 188° |
| 2026-04-16 14:26 | 51.10039 | 10.21470 | 24202 ft | 296 kts | 188° |
| 2026-04-16 14:27 | 51.07982 | 10.21427 | 24211 ft | 295 kts | 188° |
| 2026-04-16 14:27 | 51.05927 | 10.21390 | 24210 ft | 295 kts | 188° |
| 2026-04-16 14:27 | 51.03871 | 10.21351 | 24208 ft | 296 kts | 188° |
| 2026-04-16 14:27 | 51.01811 | 10.21316 | 24212 ft | 296 kts | 187° |
| 2026-04-16 14:28 | 50.99755 | 10.21284 | 24204 ft | 296 kts | 188° |
| 2026-04-16 14:28 | 50.97725 | 10.21245 | 24210 ft | 296 kts | 188° |
| 2026-04-16 14:28 | 50.95665 | 10.21211 | 24212 ft | 296 kts | 188° |
| 2026-04-16 14:28 | 50.93606 | 10.21172 | 24212 ft | 296 kts | 188° |
| 2026-04-16 14:29 | 50.91549 | 10.21133 | 24216 ft | 296 kts | 188° |
| 2026-04-16 14:29 | 50.89489 | 10.21094 | 24214 ft | 296 kts | 188° |
| 2026-04-16 14:29 | 50.87434 | 10.21059 | 24207 ft | 296 kts | 187° |
| 2026-04-16 14:29 | 50.85372 | 10.21021 | 24212 ft | 296 kts | 187° |
| 2026-04-16 14:30 | 50.83314 | 10.20981 | 24218 ft | 296 kts | 188° |
| 2026-04-16 14:30 | 50.81255 | 10.20939 | 24219 ft | 296 kts | 187° |
| 2026-04-16 14:30 | 50.79193 | 10.20895 | 24218 ft | 295 kts | 189° |
| 2026-04-16 14:30 | 50.77280 | 10.20119 | 24209 ft | 277 kts | 218° |
| 2026-04-16 14:31 | 50.75994 | 10.18036 | 24209 ft | 261 kts | 249° |
| 2026-04-16 14:31 | 50.75593 | 10.15321 | 24219 ft | 254 kts | 270° |
| 2026-04-16 14:31 | 50.75718 | 10.12549 | 24222 ft | 253 kts | 278° |
| 2026-04-16 14:31 | 50.75727 | 10.09779 | 24216 ft | 255 kts | 262° |
| 2026-04-16 14:32 | 50.75163 | 10.07094 | 24216 ft | 259 kts | 251° |
| 2026-04-16 14:32 | 50.74404 | 10.04502 | 24214 ft | 260 kts | 249° |
| 2026-04-16 14:32 | 50.73614 | 10.01932 | 24214 ft | 261 kts | 249° |
| 2026-04-16 14:32 | 50.72811 | 9.99367 | 24213 ft | 261 kts | 248° |
| 2026-04-16 14:33 | 50.72002 | 9.96804 | 24219 ft | 261 kts | 248° |
| 2026-04-16 14:33 | 50.71190 | 9.94249 | 24217 ft | 261 kts | 248° |
| 2026-04-16 14:33 | 50.70378 | 9.91692 | 24218 ft | 261 kts | 248° |
| 2026-04-16 14:33 | 50.69560 | 9.89136 | 24219 ft | 261 kts | 248° |
| 2026-04-16 14:34 | 50.68737 | 9.86580 | 24218 ft | 261 kts | 248° |
| 2026-04-16 14:34 | 50.68042 | 9.84427 | 24219 ft | 261 kts | 248° |
| 2026-04-16 14:34 | 50.67220 | 9.81875 | 24221 ft | 261 kts | 248° |
| 2026-04-16 14:34 | 50.66395 | 9.79325 | 24220 ft | 261 kts | 248° |
| 2026-04-16 14:35 | 50.65571 | 9.76770 | 24218 ft | 261 kts | 248° |
| 2026-04-16 14:35 | 50.64745 | 9.74214 | 24222 ft | 262 kts | 248° |
| 2026-04-16 14:35 | 50.63920 | 9.71662 | 24216 ft | 261 kts | 248° |
| 2026-04-16 14:35 | 50.63096 | 9.69112 | 24215 ft | 261 kts | 248° |
| 2026-04-16 14:36 | 50.62262 | 9.66565 | 24215 ft | 262 kts | 245° |
| 2026-04-16 14:36 | 50.60963 | 9.64488 | 24208 ft | 278 kts | 215° |
| 2026-04-16 14:36 | 50.59064 | 9.63600 | 24220 ft | 291 kts | 196° |
| 2026-04-16 14:36 | 50.57068 | 9.63067 | 24222 ft | 290 kts | 199° |
| 2026-04-16 14:37 | 50.55117 | 9.62319 | 24219 ft | 287 kts | 203° |
| 2026-04-16 14:37 | 50.53215 | 9.61397 | 24217 ft | 286 kts | 205° |
| 2026-04-16 14:37 | 50.51339 | 9.60385 | 24217 ft | 285 kts | 207° |
| 2026-04-16 14:37 | 50.49481 | 9.59320 | 24217 ft | 284 kts | 207° |
| 2026-04-16 14:38 | 50.47632 | 9.58227 | 24196 ft | 284 kts | 207° |
| 2026-04-16 14:38 | 50.45909 | 9.56840 | 24198 ft | 273 kts | 229° |
| 2026-04-16 14:38 | 50.44918 | 9.54450 | 24204 ft | 258 kts | 259° |
| 2026-04-16 14:38 | 50.44846 | 9.51683 | 24221 ft | 254 kts | 277° |
| 2026-04-16 14:39 | 50.44979 | 9.48914 | 24227 ft | 255 kts | 272° |
| 2026-04-16 14:39 | 50.44824 | 9.46134 | 24225 ft | 257 kts | 263° |
| 2026-04-16 14:39 | 50.44466 | 9.43379 | 24222 ft | 258 kts | 260° |
| 2026-04-16 14:39 | 50.44043 | 9.40680 | 24222 ft | 258 kts | 259° |
| 2026-04-16 14:40 | 50.43581 | 9.37955 | 24219 ft | 259 kts | 258° |
| 2026-04-16 14:40 | 50.43091 | 9.35204 | 24223 ft | 259 kts | 258° |
| 2026-04-16 14:40 | 50.42602 | 9.32524 | 24225 ft | 259 kts | 257° |
| 2026-04-16 14:40 | 50.42098 | 9.29812 | 24226 ft | 259 kts | 257° |
| 2026-04-16 14:41 | 50.41588 | 9.27105 | 24234 ft | 259 kts | 257° |
| 2026-04-16 14:41 | 50.41066 | 9.24364 | 24229 ft | 259 kts | 256° |
| 2026-04-16 14:41 | 50.40479 | 9.21729 | 24226 ft | 260 kts | 253° |
| 2026-04-16 14:41 | 50.39850 | 9.19076 | 24226 ft | 260 kts | 253° |
| 2026-04-16 14:42 | 50.39222 | 9.16425 | 24224 ft | 260 kts | 253° |
| 2026-04-16 14:42 | 50.38599 | 9.13769 | 24224 ft | 260 kts | 253° |
| 2026-04-16 14:42 | 50.37980 | 9.11112 | 24223 ft | 260 kts | 253° |
| 2026-04-16 14:42 | 50.37361 | 9.08458 | 24222 ft | 260 kts | 253° |
| 2026-04-16 14:43 | 50.36742 | 9.05798 | 24222 ft | 260 kts | 253° |
| 2026-04-16 14:43 | 50.36126 | 9.03144 | 24224 ft | 260 kts | 253° |
| 2026-04-16 14:43 | 50.35505 | 9.00485 | 24224 ft | 259 kts | 253° |
| 2026-04-16 14:43 | 50.34884 | 8.97827 | 24224 ft | 260 kts | 253° |
| 2026-04-16 14:44 | 50.34263 | 8.95171 | 24223 ft | 260 kts | 253° |
| 2026-04-16 14:44 | 50.33641 | 8.92519 | 24222 ft | 260 kts | 253° |
| 2026-04-16 14:44 | 50.33017 | 8.89864 | 24221 ft | 260 kts | 253° |
| 2026-04-16 14:44 | 50.32393 | 8.87210 | 24225 ft | 260 kts | 253° |
| 2026-04-16 14:45 | 50.31769 | 8.84561 | 24225 ft | 260 kts | 253° |
| 2026-04-16 14:45 | 50.31143 | 8.81905 | 24207 ft | 260 kts | 253° |
| 2026-04-16 14:45 | 50.30517 | 8.79250 | 24219 ft | 260 kts | 253° |
| 2026-04-16 14:45 | 50.29892 | 8.76601 | 24227 ft | 260 kts | 253° |
| 2026-04-16 14:46 | 50.29265 | 8.73948 | 24229 ft | 260 kts | 253° |
| 2026-04-16 14:46 | 50.28640 | 8.71296 | 24227 ft | 260 kts | 253° |
| 2026-04-16 14:46 | 50.28015 | 8.68645 | 24226 ft | 260 kts | 253° |
| 2026-04-16 14:46 | 50.27391 | 8.65995 | 24229 ft | 260 kts | 253° |
| 2026-04-16 14:47 | 50.26765 | 8.63343 | 24229 ft | 260 kts | 253° |
| 2026-04-16 14:47 | 50.26140 | 8.60691 | 24230 ft | 260 kts | 253° |
| 2026-04-16 14:47 | 50.25514 | 8.58047 | 24231 ft | 260 kts | 253° |
| 2026-04-16 14:47 | 50.24887 | 8.55392 | 24229 ft | 260 kts | 253° |
| 2026-04-16 14:48 | 50.24263 | 8.52744 | 24231 ft | 260 kts | 253° |
| 2026-04-16 14:48 | 50.23640 | 8.50095 | 24232 ft | 260 kts | 253° |
| 2026-04-16 14:48 | 50.23019 | 8.47449 | 24231 ft | 259 kts | 253° |
| 2026-04-16 14:48 | 50.22396 | 8.44806 | 24232 ft | 260 kts | 253° |
| 2026-04-16 14:49 | 50.21769 | 8.42160 | 24238 ft | 260 kts | 253° |
| 2026-04-16 14:49 | 50.21143 | 8.39517 | 24237 ft | 260 kts | 253° |
| 2026-04-16 14:49 | 50.20518 | 8.36883 | 24154 ft | 256 kts | 253° |
| 2026-04-16 14:49 | 50.19901 | 8.34293 | 23799 ft | 254 kts | 253° |
| 2026-04-16 14:50 | 50.19284 | 8.31715 | 23317 ft | 253 kts | 253° |
| 2026-04-16 14:50 | 50.18664 | 8.29142 | 22840 ft | 252 kts | 256° |
| 2026-04-16 14:50 | 50.18553 | 8.26480 | 22358 ft | 246 kts | 282° |
| 2026-04-16 14:50 | 50.19267 | 8.24084 | 21875 ft | 248 kts | 307° |
| 2026-04-16 14:51 | 50.20654 | 8.22476 | 21383 ft | 255 kts | 333° |
| 2026-04-16 14:51 | 50.22420 | 8.22001 | 20917 ft | 265 kts | 358° |
| 2026-04-16 14:51 | 50.24213 | 8.22824 | 20446 ft | 276 kts | 23° |
| 2026-04-16 14:51 | 50.25702 | 8.24755 | 19981 ft | 287 kts | 51° |
| 2026-04-16 14:53 | 50.28003 | 8.46058 | 17204 ft | 278 kts | 74° |
| 2026-04-16 14:53 | 50.28461 | 8.48979 | 16808 ft | 276 kts | 73° |
| 2026-04-16 14:54 | 50.28930 | 8.51879 | 16422 ft | 274 kts | 73° |
| 2026-04-16 14:54 | 50.29399 | 8.54754 | 16035 ft | 272 kts | 74° |
| 2026-04-16 14:54 | 50.29859 | 8.57611 | 15648 ft | 270 kts | 74° |
| 2026-04-16 14:54 | 50.30319 | 8.60452 | 15278 ft | 269 kts | 74° |
| 2026-04-16 14:55 | 50.30773 | 8.63241 | 14918 ft | 267 kts | 74° |
| 2026-04-16 14:55 | 50.31226 | 8.66049 | 14556 ft | 265 kts | 75° |
| 2026-04-16 14:55 | 50.31678 | 8.68837 | 14195 ft | 263 kts | 75° |
| 2026-04-16 14:55 | 50.32124 | 8.71607 | 13807 ft | 262 kts | 75° |
| 2026-04-16 14:56 | 50.32568 | 8.74365 | 13419 ft | 261 kts | 75° |
| 2026-04-16 14:56 | 50.32999 | 8.77103 | 13038 ft | 258 kts | 75° |
| 2026-04-16 14:56 | 50.33430 | 8.79817 | 12658 ft | 256 kts | 74° |
| 2026-04-16 14:56 | 50.33859 | 8.82515 | 12286 ft | 254 kts | 75° |
| 2026-04-16 14:57 | 50.34285 | 8.85185 | 11923 ft | 252 kts | 74° |
| 2026-04-16 14:57 | 50.34710 | 8.87834 | 11563 ft | 250 kts | 74° |
| 2026-04-16 14:57 | 50.35129 | 8.90458 | 11208 ft | 248 kts | 74° |
| 2026-04-16 14:57 | 50.35555 | 8.93061 | 10861 ft | 245 kts | 74° |
| 2026-04-16 14:58 | 50.35956 | 8.95649 | 10497 ft | 244 kts | 79° |
| 2026-04-16 14:58 | 50.35568 | 9.00900 | 9753 ft | 242 kts | 98° |
| 2026-04-16 14:58 | 50.35309 | 9.03494 | 9371 ft | 240 kts | 97° |
| 2026-04-16 14:59 | 50.35083 | 9.06074 | 9003 ft | 238 kts | 97° |
| 2026-04-16 14:59 | 50.34874 | 9.08637 | 8638 ft | 236 kts | 96° |
| 2026-04-16 14:59 | 50.34677 | 9.11181 | 8274 ft | 235 kts | 96° |
| 2026-04-16 14:59 | 50.34483 | 9.13707 | 7922 ft | 233 kts | 96° |
| 2026-04-16 15:00 | 50.34300 | 9.16214 | 7571 ft | 231 kts | 96° |
| 2026-04-16 15:00 | 50.34126 | 9.18706 | 7226 ft | 229 kts | 95° |
| 2026-04-16 15:00 | 50.33948 | 9.21177 | 6876 ft | 228 kts | 96° |
| 2026-04-16 15:00 | 50.33773 | 9.23630 | 6537 ft | 226 kts | 96° |
| 2026-04-16 15:01 | 50.33599 | 9.26069 | 6174 ft | 225 kts | 95° |
| 2026-04-16 15:01 | 50.33429 | 9.28490 | 5808 ft | 224 kts | 96° |
| 2026-04-16 15:01 | 50.33255 | 9.30903 | 5439 ft | 223 kts | 96° |
| 2026-04-16 15:01 | 50.33079 | 9.33304 | 5220 ft | 222 kts | 96° |
| 2026-04-16 15:02 | 50.32906 | 9.35700 | 5188 ft | 222 kts | 96° |
| 2026-04-16 15:02 | 50.32642 | 9.38066 | 5192 ft | 222 kts | 113° |
| 2026-04-16 15:02 | 50.31653 | 9.39854 | 5201 ft | 220 kts | 152° |
| 2026-04-16 15:02 | 50.30192 | 9.40356 | 5217 ft | 216 kts | 184° |
| 2026-04-16 15:03 | 50.28722 | 9.39950 | 5225 ft | 215 kts | 196° |
| 2026-04-16 15:03 | 50.27241 | 9.39739 | 5215 ft | 217 kts | 173° |
| 2026-04-16 15:03 | 50.25752 | 9.39984 | 5209 ft | 214 kts | 192° |
| 2026-04-16 15:03 | 50.24474 | 9.38946 | 5207 ft | 208 kts | 230° |
| 2026-04-16 15:04 | 50.23859 | 9.36941 | 5222 ft | 206 kts | 258° |
| 2026-04-16 15:04 | 50.23749 | 9.34728 | 5154 ft | 205 kts | 273° |
| 2026-04-16 15:04 | 50.23754 | 9.33254 | 5083 ft | 205 kts | 263° |
| 2026-04-16 15:04 | 50.23139 | 9.31277 | 5018 ft | 207 kts | 231° |
| 2026-04-16 15:05 | 50.22202 | 9.29569 | 5001 ft | 207 kts | 231° |
| 2026-04-16 15:05 | 50.21269 | 9.27856 | 4990 ft | 207 kts | 231° |
| 2026-04-16 15:05 | 50.20337 | 9.26146 | 4987 ft | 207 kts | 231° |
| 2026-04-16 15:05 | 50.19101 | 9.23881 | 4987 ft | 207 kts | 231° |
| 2026-04-16 15:06 | 50.18175 | 9.22185 | 4856 ft | 203 kts | 231° |
| 2026-04-16 15:06 | 50.17557 | 9.21049 | 4614 ft | 203 kts | 231° |
| 2026-04-16 15:06 | 50.16802 | 9.19209 | 4242 ft | 201 kts | 250° |
| 2026-04-16 15:06 | 50.16365 | 9.17181 | 4049 ft | 192 kts | 257° |
| 2026-04-16 15:07 | 50.16150 | 9.15191 | 3903 ft | 181 kts | 255° |
| 2026-04-16 15:07 | 50.15872 | 9.13349 | 3730 ft | 170 kts | 276° |
| 2026-04-16 15:07 | 50.16048 | 9.11551 | 3439 ft | 168 kts | 265° |
| 2026-04-16 15:07 | 50.15747 | 9.09793 | 3133 ft | 167 kts | 258° |
| 2026-04-16 15:08 | 50.15547 | 9.08001 | 3041 ft | 167 kts | 265° |
| 2026-04-16 15:08 | 50.15449 | 9.06219 | 3480 ft | 167 kts | 265° |
| 2026-04-16 15:08 | 50.15316 | 9.04392 | 3496 ft | 167 kts | 264° |
| 2026-04-16 15:08 | 50.15179 | 9.02600 | 3207 ft | 166 kts | 264° |
| 2026-04-16 15:09 | 50.15044 | 9.00797 | 2996 ft | 169 kts | 264° |
| 2026-04-16 15:09 | 50.14905 | 8.98960 | 2972 ft | 168 kts | 264° |
| 2026-04-16 15:09 | 50.14765 | 8.97146 | 2970 ft | 169 kts | 264° |
| 2026-04-16 15:09 | 50.14609 | 8.95329 | 2979 ft | 169 kts | 255° |
| 2026-04-16 15:10 | 50.14145 | 8.93664 | 2985 ft | 170 kts | 248° |
| 2026-04-16 15:10 | 50.13695 | 8.91965 | 2986 ft | 169 kts | 251° |
| 2026-04-16 15:10 | 50.13281 | 8.90246 | 2989 ft | 170 kts | 251° |
| 2026-04-16 15:10 | 50.12871 | 8.88516 | 2997 ft | 169 kts | 251° |
| 2026-04-16 15:11 | 50.12462 | 8.86796 | 2993 ft | 169 kts | 252° |
| 2026-04-16 15:11 | 50.12091 | 8.85054 | 2994 ft | 169 kts | 255° |
| 2026-04-16 15:11 | 50.11720 | 8.83313 | 2990 ft | 170 kts | 252° |
| 2026-04-16 15:11 | 50.11318 | 8.81587 | 2988 ft | 170 kts | 251° |
| 2026-04-16 15:12 | 50.10909 | 8.79864 | 2994 ft | 169 kts | 251° |
| 2026-04-16 15:12 | 50.10499 | 8.78143 | 2982 ft | 170 kts | 251° |
| 2026-04-16 15:12 | 50.10088 | 8.76420 | 2990 ft | 170 kts | 251° |
| 2026-04-16 15:12 | 50.09681 | 8.74720 | 2868 ft | 165 kts | 251° |
| 2026-04-16 15:13 | 50.09256 | 8.73069 | 2558 ft | 165 kts | 249° |
| 2026-04-16 15:13 | 50.08825 | 8.71417 | 2251 ft | 163 kts | 250° |
| 2026-04-16 15:13 | 50.08422 | 8.69764 | 2010 ft | 165 kts | 250° |
| 2026-04-16 15:13 | 50.08021 | 8.68087 | 1969 ft | 165 kts | 251° |
| 2026-04-16 15:14 | 50.07629 | 8.66434 | 1865 ft | 160 kts | 250° |
| 2026-04-16 15:14 | 50.07242 | 8.64807 | 1545 ft | 161 kts | 250° |
| 2026-04-16 15:14 | 50.06853 | 8.63157 | 1243 ft | 162 kts | 250° |
| 2026-04-16 15:14 | 50.06476 | 8.61538 | 1045 ft | 156 kts | 249° |
| 2026-04-16 15:15 | 50.06090 | 8.59951 | 967 ft | 157 kts | 249° |
| 2026-04-16 15:15 | 50.05736 | 8.58339 | 998 ft | 157 kts | 251° |
| 2026-04-16 15:15 | 50.05368 | 8.56742 | 1006 ft | 157 kts | 249° |
| 2026-04-16 15:15 | 50.04986 | 8.55075 | 696 ft | 174 kts | 250° |
| 2026-04-16 15:16 | 50.04635 | 8.53584 | 431 ft | 129 kts | 248° |
| 2026-04-16 15:16 | 50.04341 | 8.52383 | 354 ft | 105 kts | 249° |
| 2026-04-16 15:16 | 50.04170 | 8.51656 | 340 ft | 29 kts | 246° |
| 2026-04-16 15:16 | 50.04078 | 8.51479 | 337 ft | 16 kts | 217° |
| 2026-04-16 15:17 | 50.03993 | 8.51386 | 335 ft | 7 kts | 215° |
| 2026-04-16 15:17 | 50.03947 | 8.51354 | 341 ft | 10 kts | 177° |
| 2026-04-16 15:17 | 50.03906 | 8.51441 | 339 ft | 14 kts | 75° |
| 2026-04-16 15:17 | 50.03943 | 8.51597 | 346 ft | 17 kts | 69° |
| 2026-04-16 15:18 | 50.03990 | 8.51792 | 347 ft | 21 kts | 69° |
| 2026-04-16 15:18 | 50.04045 | 8.52018 | 352 ft | 24 kts | 69° |
| 2026-04-16 15:18 | 50.04108 | 8.52283 | 352 ft | 28 kts | 69° |
| 2026-04-16 15:18 | 50.04178 | 8.52584 | 358 ft | 31 kts | 70° |
| 2026-04-16 15:19 | 50.04255 | 8.52913 | 365 ft | 34 kts | 70° |
| 2026-04-16 15:19 | 50.04343 | 8.53275 | 371 ft | 37 kts | 69° |
| 2026-04-16 15:19 | 50.04397 | 8.53555 | 381 ft | 26 kts | 82° |
| 2026-04-16 15:19 | 50.04416 | 8.53845 | 381 ft | 29 kts | 84° |
| 2026-04-16 15:20 | 50.04436 | 8.54126 | 381 ft | 20 kts | 84° |
| 2026-04-16 15:20 | 50.04452 | 8.54353 | 379 ft | 22 kts | 84° |
| 2026-04-16 15:20 | 50.04427 | 8.54599 | 371 ft | 24 kts | 118° |
| 2026-04-16 15:20 | 50.04302 | 8.54777 | 362 ft | 26 kts | 161° |
| 2026-04-16 15:21 | 50.04152 | 8.54861 | 362 ft | 24 kts | 159° |
| 2026-04-16 15:21 | 50.04073 | 8.54907 | 360 ft | 0 kts | 159° |
| 2026-04-16 15:22 | 50.04063 | 8.54913 | 362 ft | 6 kts | 159° |
| 2026-04-16 15:22 | 50.04016 | 8.55003 | 359 ft | 17 kts | 83° |
| 2026-04-16 15:22 | 50.04065 | 8.55211 | 360 ft | 22 kts | 68° |
| 2026-04-16 15:22 | 50.04123 | 8.55442 | 357 ft | 24 kts | 70° |
| 2026-04-16 15:23 | 50.04183 | 8.55703 | 364 ft | 27 kts | 70° |
| 2026-04-16 15:23 | 50.04252 | 8.55991 | 363 ft | 30 kts | 69° |
| 2026-04-16 15:23 | 50.04329 | 8.56306 | 367 ft | 32 kts | 69° |
| 2026-04-16 15:23 | 50.04403 | 8.56621 | 364 ft | 28 kts | 70° |
| 2026-04-16 15:24 | 50.04458 | 8.56837 | 365 ft | 20 kts | 39° |
| 2026-04-16 15:24 | 50.04595 | 8.56902 | 368 ft | 22 kts | 14° |
| 2026-04-16 15:24 | 50.04691 | 8.56960 | 363 ft | 7 kts | 25° |
| 2026-04-16 15:24 | 50.04721 | 8.57002 | 363 ft | 6 kts | 111° |
| 2026-04-16 15:25 | 50.04705 | 8.57052 | 363 ft | 3 kts | 111° |
| 2026-04-16 15:25 | 50.04704 | 8.57056 | 361 ft | 0 kts | 111° |
| 2026-04-16 15:26 | 50.04701 | 8.57079 | 368 ft | 4 kts | 107° |
| 2026-04-16 15:26 | 50.04698 | 8.57092 | 367 ft | 0 kts | 111° |